createdAt,value
2023-01-30T00:01:43.504Z,7.01
2023-01-30T00:04:13.011Z,7.44
2023-01-30T00:06:41.418Z,7.43
2023-01-30T00:09:10.162Z,7.48
2023-01-30T00:11:37.198Z,7.22
2023-01-30T00:14:04.022Z,7.44
2023-01-30T00:16:31.700Z,7.35
2023-01-30T00:18:58.673Z,7.64
2023-01-30T00:21:25.506Z,7.58
2023-01-30T00:23:52.471Z,7.57
2023-01-30T00:26:19.265Z,7.84
2023-01-30T00:28:45.960Z,8.05
2023-01-30T00:31:12.879Z,7.94
2023-01-30T00:33:39.746Z,8.32
2023-01-30T00:36:07.031Z,7.96
2023-01-30T00:38:34.201Z,7.93
2023-01-30T00:41:01.083Z,7.81
2023-01-30T00:43:46.284Z,8.03
2023-01-30T00:46:55.824Z,7.38
2023-01-30T00:49:22.755Z,7.37
2023-01-30T00:51:49.825Z,7.70
2023-01-30T00:54:17.060Z,7.34
2023-01-30T00:56:44.577Z,7.79
2023-01-30T00:59:11.489Z,7.85
2023-01-30T01:01:38.415Z,8.00
2023-01-30T01:04:06.885Z,7.87
2023-01-30T01:06:33.635Z,7.76
2023-01-30T01:09:00.535Z,7.75
2023-01-30T01:11:27.473Z,7.39
2023-01-30T01:13:59.696Z,7.39
2023-01-30T01:16:27.655Z,7.71
2023-01-30T01:18:54.942Z,7.36
2023-01-30T01:21:22.407Z,7.86
2023-01-30T01:23:54.347Z,7.37
2023-01-30T01:26:21.282Z,7.97
2023-01-30T01:28:48.182Z,7.97
2023-01-30T01:31:16.571Z,8.04
2023-01-30T01:33:43.980Z,7.68
2023-01-30T01:36:16.225Z,7.78
2023-01-30T01:38:46.775Z,7.93
2023-01-30T01:41:15.240Z,7.66
2023-01-30T01:44:01.702Z,8.15
2023-01-30T01:46:36.280Z,7.75
2023-01-30T01:49:08.146Z,7.87
2023-01-30T01:51:42.316Z,7.70
2023-01-30T01:54:12.919Z,8.08
2023-01-30T01:56:43.935Z,8.30
2023-01-30T01:59:14.718Z,7.64
2023-01-30T02:01:41.598Z,8.39
2023-01-30T02:04:10.436Z,7.55
2023-01-30T02:06:40.335Z,8.17
2023-01-30T02:09:10.519Z,7.74
2023-01-30T02:12:06.787Z,7.93
2023-01-30T02:14:34.336Z,8.31
2023-01-30T02:17:08.936Z,7.81
2023-01-30T02:19:51.152Z,7.93
2023-01-30T02:22:36.812Z,7.91
2023-01-30T02:25:43.101Z,8.22
2023-01-30T02:28:34.680Z,7.58
2023-01-30T02:31:04.503Z,7.75
2023-01-30T02:33:43.595Z,7.90
2023-01-30T02:36:13.799Z,7.75
2023-01-30T02:39:07.946Z,7.90
2023-01-30T02:41:37.761Z,8.23
2023-01-30T02:44:07.205Z,7.69
2023-01-30T02:46:53.437Z,8.13
2023-01-30T02:49:29.892Z,7.89
2023-01-30T02:51:58.149Z,7.84
2023-01-30T02:54:25.405Z,7.81
2023-01-30T02:56:54.540Z,7.88
2023-01-30T02:59:43.647Z,7.82
2023-01-30T03:02:26.991Z,8.00
2023-01-30T03:05:18.741Z,7.73
2023-01-30T03:08:04.509Z,8.13
2023-01-30T03:10:46.731Z,8.26
2023-01-30T03:13:26.230Z,8.05
2023-01-30T03:16:04.201Z,8.31
2023-01-30T03:18:31.083Z,8.33
2023-01-30T03:21:05.342Z,8.25
2023-01-30T03:23:32.469Z,8.16
2023-01-30T03:25:59.800Z,8.41
2023-01-30T03:28:26.952Z,8.35
2023-01-30T03:30:53.808Z,8.41
2023-01-30T03:33:20.687Z,8.54
2023-01-30T03:35:50.157Z,8.89
2023-01-30T03:38:18.509Z,8.59
2023-01-30T03:40:46.505Z,8.60
2023-01-30T03:43:13.619Z,9.08
2023-01-30T03:45:41.662Z,8.33
2023-01-30T03:48:08.598Z,8.66
2023-01-30T03:50:35.732Z,8.35
2023-01-30T03:53:02.515Z,8.81
2023-01-30T03:55:29.517Z,8.42
2023-01-30T03:57:59.413Z,9.10
2023-01-30T04:00:29.632Z,8.49
2023-01-30T04:02:57.497Z,8.67
2023-01-30T04:05:24.769Z,8.61
2023-01-30T04:07:58.897Z,8.60
2023-01-30T04:10:26.700Z,8.91
2023-01-30T04:12:53.740Z,8.42
2023-01-30T04:15:22.708Z,8.59
2023-01-30T04:18:08.143Z,8.45
2023-01-30T04:20:46.464Z,8.37
2023-01-30T04:23:14.976Z,8.10
2023-01-30T04:25:41.708Z,8.35
2023-01-30T04:28:09.768Z,8.15
2023-01-30T04:30:38.260Z,8.06
2023-01-30T04:33:37.150Z,9.09
2023-01-30T04:36:07.239Z,8.14
2023-01-30T04:38:35.077Z,8.06
2023-01-30T04:41:02.946Z,8.73
2023-01-30T04:43:32.518Z,8.06
2023-01-30T04:46:17.694Z,7.94
2023-01-30T04:48:44.641Z,8.03
2023-01-30T04:51:11.700Z,8.40
2023-01-30T04:53:38.750Z,8.19
2023-01-30T04:56:06.518Z,8.41
2023-01-30T04:58:33.431Z,8.69
2023-01-30T05:01:19.207Z,7.97
2023-01-30T05:03:50.064Z,8.03
2023-01-30T05:06:16.796Z,8.63
2023-01-30T05:08:46.573Z,8.97
2023-01-30T05:11:13.595Z,8.52
2023-01-30T05:13:40.665Z,8.38
2023-01-30T05:16:07.695Z,9.05
2023-01-30T05:18:34.503Z,8.55
2023-01-30T05:21:09.876Z,8.66
2023-01-30T05:23:36.695Z,8.65
2023-01-30T05:26:04.127Z,8.81
2023-01-30T05:28:31.187Z,9.19
2023-01-30T05:31:05.943Z,8.93
2023-01-30T05:33:33.050Z,8.46
2023-01-30T05:36:00.458Z,9.04
2023-01-30T05:38:28.123Z,8.91
2023-01-30T05:41:01.398Z,9.32
2023-01-30T05:43:28.802Z,9.02
2023-01-30T05:45:56.605Z,8.72
2023-01-30T05:48:24.242Z,8.96
2023-01-30T05:50:55.228Z,9.56
2023-01-30T05:53:23.588Z,9.65
2023-01-30T05:56:01.991Z,9.23
2023-01-30T05:58:29.483Z,9.40
2023-01-30T06:01:10.530Z,9.02
2023-01-30T06:03:37.512Z,8.78
2023-01-30T06:06:05.925Z,9.05
2023-01-30T06:08:33.277Z,9.14
2023-01-30T06:11:05.575Z,9.41
2023-01-30T06:13:32.519Z,9.38
2023-01-30T06:16:00.327Z,9.09
2023-01-30T06:18:27.665Z,9.44
2023-01-30T06:20:54.901Z,9.58
2023-01-30T06:23:23.562Z,9.74
2023-01-30T06:25:51.450Z,9.86
2023-01-30T06:28:19.147Z,9.72
2023-01-30T06:30:45.921Z,9.41
2023-01-30T06:33:12.957Z,9.87
2023-01-30T06:35:42.887Z,9.79
2023-01-30T06:38:11.461Z,9.84
2023-01-30T06:40:38.632Z,9.75
2023-01-30T06:43:05.628Z,9.71
2023-01-30T06:45:32.410Z,9.48
2023-01-30T06:47:59.238Z,9.62
2023-01-30T06:50:27.757Z,9.93
2023-01-30T06:52:55.342Z,9.48
2023-01-30T06:55:24.707Z,9.19
2023-01-30T06:58:10.631Z,9.43
2023-01-30T07:00:40.095Z,9.73
2023-01-30T07:03:13.988Z,9.49
2023-01-30T07:05:41.871Z,9.55
2023-01-30T07:08:09.112Z,9.75
2023-01-30T07:10:36.289Z,9.81
2023-01-30T07:13:04.156Z,10.11
2023-01-30T07:15:31.829Z,9.67
2023-01-30T07:17:58.792Z,9.96
2023-01-30T07:20:25.914Z,9.75
2023-01-30T07:22:56.277Z,9.19
2023-01-30T07:25:25.268Z,9.46
2023-01-30T07:27:58.424Z,9.38
2023-01-30T07:30:26.597Z,9.59
2023-01-30T07:32:58.174Z,9.35
2023-01-30T07:35:27.718Z,9.55
2023-01-30T07:37:54.811Z,9.34
2023-01-30T07:40:23.624Z,9.93
2023-01-30T07:43:02.200Z,10.25
2023-01-30T07:45:35.419Z,9.40
2023-01-30T07:48:02.379Z,10.01
2023-01-30T07:50:29.288Z,10.27
2023-01-30T07:53:15.263Z,10.49
2023-01-30T07:55:42.598Z,10.15
2023-01-30T07:58:12.735Z,10.14
2023-01-30T08:00:40.747Z,10.13
2023-01-30T08:03:12.191Z,9.96
2023-01-30T08:05:39.123Z,10.33
2023-01-30T08:08:05.929Z,9.83
2023-01-30T08:10:36.874Z,9.95
2023-01-30T08:13:03.684Z,10.28
2023-01-30T08:15:31.997Z,10.25
2023-01-30T08:17:59.066Z,10.62
2023-01-30T08:20:32.525Z,10.57
2023-01-30T08:23:00.655Z,10.70
2023-01-30T08:25:27.498Z,9.77
2023-01-30T08:27:54.755Z,10.22
2023-01-30T08:30:22.404Z,11.32
2023-01-30T08:32:49.384Z,11.18
2023-01-30T08:35:20.300Z,11.49
2023-01-30T08:37:49.979Z,11.43
2023-01-30T08:40:20.391Z,11.00
2023-01-30T08:42:47.874Z,10.57
2023-01-30T08:45:14.906Z,10.12
2023-01-30T08:47:41.909Z,10.15
2023-01-30T08:50:09.379Z,10.24
2023-01-30T08:52:36.203Z,10.83
2023-01-30T08:55:03.114Z,10.55
2023-01-30T08:57:30.020Z,10.77
2023-01-30T08:59:56.910Z,11.03
2023-01-30T09:02:23.693Z,11.16
2023-01-30T09:04:50.620Z,10.81
2023-01-30T09:07:19.587Z,10.73
2023-01-30T09:09:46.433Z,10.80
2023-01-30T09:12:19.283Z,10.19
2023-01-30T09:14:49.285Z,10.57
2023-01-30T09:17:16.475Z,10.39
2023-01-30T09:19:45.891Z,10.30
2023-01-30T09:22:16.647Z,10.63
2023-01-30T09:24:43.440Z,10.47
2023-01-30T09:27:10.287Z,9.97
2023-01-30T09:29:37.000Z,10.55
2023-01-30T09:32:06.838Z,10.48
2023-01-30T09:34:33.861Z,10.43
2023-01-30T09:37:04.365Z,10.72
2023-01-30T09:39:31.868Z,10.40
2023-01-30T09:42:04.593Z,10.87
2023-01-30T09:44:43.654Z,10.66
2023-01-30T09:47:32.691Z,10.74
2023-01-30T09:50:44.040Z,10.63
2023-01-30T09:53:41.940Z,10.83
2023-01-30T09:56:08.959Z,10.40
2023-01-30T09:58:46.543Z,10.73
2023-01-30T10:01:27.902Z,10.76
2023-01-30T10:04:02.908Z,10.43
2023-01-30T10:06:32.060Z,10.08
2023-01-30T10:09:05.941Z,10.78
2023-01-30T10:11:54.960Z,10.45
2023-01-30T10:14:28.425Z,10.53
2023-01-30T10:17:13.575Z,10.85
2023-01-30T10:20:04.025Z,11.23
2023-01-30T10:22:42.858Z,11.21
2023-01-30T10:25:38.044Z,11.32
2023-01-30T10:28:23.295Z,11.25
2023-01-30T10:30:53.346Z,10.86
2023-01-30T10:33:28.819Z,10.69
2023-01-30T10:36:04.825Z,10.81
2023-01-30T10:38:44.581Z,11.00
2023-01-30T10:41:24.253Z,11.29
2023-01-30T10:44:00.124Z,11.21
2023-01-30T10:46:36.565Z,11.09
2023-01-30T10:49:06.987Z,10.89
2023-01-30T10:52:01.058Z,11.11
2023-01-30T10:54:45.014Z,11.13
2023-01-30T10:57:18.028Z,11.15
2023-01-30T11:00:25.970Z,11.21
2023-01-30T11:03:08.490Z,10.64
2023-01-30T11:05:42.371Z,10.87
2023-01-30T11:08:25.807Z,10.96
2023-01-30T11:10:53.564Z,11.45
2023-01-30T11:13:22.300Z,11.43
2023-01-30T11:15:51.756Z,11.24
2023-01-30T11:19:16.619Z,11.38
2023-01-30T11:21:18.823Z,11.18
2023-01-30T11:23:45.665Z,11.60
2023-01-30T11:26:29.488Z,11.09
2023-01-30T11:28:58.903Z,11.38
2023-01-30T11:31:40.753Z,11.22
2023-01-30T11:34:17.632Z,11.41
2023-01-30T11:36:47.203Z,11.13
2023-01-30T11:39:18.662Z,11.18
2023-01-30T11:41:55.535Z,11.26
2023-01-30T11:44:30.150Z,10.86
2023-01-30T11:47:10.076Z,10.60
2023-01-30T11:49:48.456Z,10.65
2023-01-30T11:52:35.243Z,10.49
2023-01-30T11:55:07.022Z,10.99
2023-01-30T11:57:44.728Z,10.87
2023-01-30T12:00:23.922Z,11.02
2023-01-30T12:02:53.303Z,11.18
2023-01-30T12:05:31.050Z,10.46
2023-01-30T12:08:31.283Z,10.42
2023-01-30T12:11:42.476Z,10.73
2023-01-30T12:14:34.204Z,10.85
2023-01-30T12:17:10.312Z,11.27
2023-01-30T12:19:42.965Z,11.36
2023-01-30T12:22:14.359Z,11.09
2023-01-30T12:25:02.837Z,11.44
2023-01-30T12:30:32.933Z,10.79
2023-01-30T12:35:59.698Z,10.76
2023-01-30T12:38:39.699Z,10.96
2023-01-30T12:41:10.631Z,11.16
2023-01-30T12:44:02.327Z,11.14
2023-01-30T12:47:00.224Z,11.36
2023-01-30T12:49:42.116Z,11.05
2023-01-30T12:52:46.871Z,10.97
2023-01-30T12:55:22.167Z,11.23
2023-01-30T12:58:05.580Z,11.34
2023-01-30T13:01:01.597Z,11.49
2023-01-30T13:03:40.472Z,11.30
2023-01-30T13:06:38.029Z,11.40
2023-01-30T13:09:30.905Z,11.32
2023-01-30T13:12:22.014Z,11.19
2023-01-30T13:15:12.051Z,11.06
2023-01-30T13:17:49.903Z,11.18
2023-01-30T13:20:36.472Z,10.82
2023-01-30T13:23:26.988Z,10.72
2023-01-30T13:26:07.317Z,11.23
2023-01-30T13:28:42.051Z,10.83
2023-01-30T13:31:12.432Z,11.18
2023-01-30T13:33:43.803Z,11.41
2023-01-30T13:36:17.365Z,11.18
2023-01-30T13:39:12.539Z,11.07
2023-01-30T13:41:47.239Z,10.95
2023-01-30T13:44:22.513Z,11.51
2023-01-30T13:46:51.592Z,11.40
2023-01-30T13:49:26.666Z,11.54
2023-01-30T13:51:58.993Z,11.23
2023-01-30T13:54:47.813Z,11.23
2023-01-30T13:57:26.187Z,11.21
2023-01-30T14:00:11.750Z,11.05
2023-01-30T14:03:04.611Z,11.67
2023-01-30T14:06:00.895Z,11.31
2023-01-30T14:08:30.857Z,11.39
2023-01-30T14:10:58.163Z,11.35
2023-01-30T14:13:25.999Z,11.56
2023-01-30T14:15:58.968Z,11.14
2023-01-30T14:18:31.467Z,11.01
2023-01-30T14:21:20.172Z,11.57
2023-01-30T14:23:58.180Z,11.35
2023-01-30T14:26:53.540Z,11.51
2023-01-30T14:29:39.086Z,11.79
2023-01-30T14:32:13.030Z,11.96
2023-01-30T14:34:51.139Z,11.98
2023-01-30T14:37:39.371Z,11.29
2023-01-30T14:40:21.529Z,11.04
2023-01-30T14:43:13.491Z,11.29
2023-01-30T14:45:48.924Z,11.51
2023-01-30T14:48:37.828Z,11.20
2023-01-30T14:51:26.377Z,10.99
2023-01-30T14:54:12.821Z,11.25
2023-01-30T14:56:42.996Z,11.53
2023-01-30T15:02:46.551Z,11.38
2023-01-30T15:05:15.948Z,11.40
2023-01-30T15:07:48.171Z,11.11
2023-01-30T15:13:39.136Z,11.11
2023-01-30T15:16:33.924Z,11.69
2023-01-30T15:19:29.899Z,11.24
2023-01-30T15:22:22.044Z,11.23
2023-01-30T15:25:00.995Z,11.58
2023-01-30T15:27:55.891Z,11.78
2023-01-30T15:31:03.033Z,11.60
2023-01-30T15:33:32.350Z,11.23
2023-01-30T15:36:00.593Z,11.31
2023-01-30T15:38:34.951Z,11.14
2023-01-30T15:41:03.922Z,10.76
2023-01-30T15:43:52.690Z,10.72
2023-01-30T15:46:32.180Z,10.94
2023-01-30T15:49:06.243Z,11.08
2023-01-30T15:51:35.945Z,11.00
2023-01-30T15:54:08.735Z,11.18
2023-01-30T15:56:35.768Z,11.22
2023-01-30T15:59:02.804Z,11.25
2023-01-30T16:01:30.136Z,11.10
2023-01-30T16:04:00.397Z,11.47
2023-01-30T16:06:32.829Z,11.40
2023-01-30T16:09:02.077Z,10.61
2023-01-30T16:11:40.349Z,11.10
2023-01-30T16:14:12.929Z,11.01
2023-01-30T16:17:01.863Z,11.18
2023-01-30T16:19:32.185Z,11.51
2023-01-30T16:22:05.556Z,11.55
2023-01-30T16:24:39.016Z,11.39
2023-01-30T16:27:08.927Z,11.49
2023-01-30T16:29:51.349Z,11.51
2023-01-30T16:32:26.784Z,11.10
2023-01-30T16:35:35.026Z,11.31
2023-01-30T16:38:03.327Z,11.84
2023-01-30T16:40:43.843Z,11.67
2023-01-30T16:43:24.198Z,11.65
2023-01-30T16:49:36.709Z,11.72
2023-01-30T16:52:29.486Z,11.01
2023-01-30T16:55:25.426Z,11.31
2023-01-30T17:00:52.206Z,11.13
2023-01-30T17:03:26.573Z,11.68
2023-01-30T17:05:53.613Z,11.54
2023-01-30T17:08:45.639Z,11.02
2023-01-30T17:11:35.234Z,11.03
2023-01-30T17:14:16.430Z,10.86
2023-01-30T17:16:43.686Z,11.17
2023-01-30T17:19:11.314Z,11.26
2023-01-30T17:21:55.115Z,11.19
2023-01-30T17:24:23.197Z,11.15
2023-01-30T17:27:08.765Z,11.68
2023-01-30T17:29:42.847Z,11.48
2023-01-30T17:32:13.585Z,11.40
2023-01-30T17:34:49.098Z,10.92
2023-01-30T17:37:21.558Z,11.27
2023-01-30T17:39:49.242Z,11.44
2023-01-30T17:42:26.619Z,11.50
2023-01-30T17:44:54.124Z,11.29
2023-01-30T17:47:21.964Z,11.51
2023-01-30T17:49:48.698Z,11.60
2023-01-30T17:52:15.459Z,11.39
2023-01-30T17:54:42.489Z,11.65
2023-01-30T17:57:12.067Z,11.89
2023-01-30T17:59:38.861Z,11.66
2023-01-30T18:02:06.897Z,11.27
2023-01-30T18:04:34.019Z,11.40
2023-01-30T18:07:04.953Z,11.28
2023-01-30T18:09:32.004Z,11.45
2023-01-30T18:11:59.586Z,11.83
2023-01-30T18:14:27.257Z,11.62
2023-01-30T18:17:00.259Z,11.93
2023-01-30T18:19:29.069Z,11.48
2023-01-30T18:21:58.404Z,11.55
2023-01-30T18:24:25.425Z,11.09
2023-01-30T18:26:52.555Z,11.69
2023-01-30T18:29:19.452Z,11.55
2023-01-30T18:31:46.463Z,11.12
2023-01-30T18:34:13.443Z,10.92
2023-01-30T18:36:40.957Z,11.31
2023-01-30T18:39:08.047Z,11.40
2023-01-30T18:41:35.562Z,11.18
2023-01-30T18:44:04.664Z,10.70
2023-01-30T18:46:32.016Z,11.51
2023-01-30T18:48:59.718Z,10.98
2023-01-30T18:51:28.950Z,11.09
2023-01-30T18:53:56.733Z,11.12
2023-01-30T18:56:30.671Z,11.25
2023-01-30T18:58:59.776Z,11.37
2023-01-30T19:01:28.156Z,11.42
2023-01-30T19:03:59.635Z,10.86
2023-01-30T19:06:27.289Z,10.69
2023-01-30T19:08:54.472Z,10.92
2023-01-30T19:11:40.875Z,11.09
2023-01-30T19:14:08.944Z,11.16
2023-01-30T19:16:37.719Z,10.94
2023-01-30T19:19:06.591Z,10.85
2023-01-30T19:21:34.499Z,11.25
2023-01-30T19:24:11.750Z,10.09
2023-01-30T19:26:38.677Z,10.19
2023-01-30T19:29:05.719Z,9.73
2023-01-30T19:31:33.040Z,10.31
2023-01-30T19:34:01.771Z,10.59
2023-01-30T19:36:30.377Z,10.89
2023-01-30T19:38:59.423Z,10.84
2023-01-30T19:41:28.647Z,11.00
2023-01-30T19:43:56.864Z,11.03
2023-01-30T19:46:23.766Z,10.50
2023-01-30T19:48:50.671Z,10.72
2023-01-30T19:51:22.664Z,10.99
2023-01-30T19:53:54.431Z,10.66
2023-01-30T19:56:22.546Z,10.76
2023-01-30T19:58:52.593Z,10.98
2023-01-30T20:01:21.101Z,10.82
2023-01-30T20:03:48.496Z,9.89
2023-01-30T20:06:20.380Z,10.14
2023-01-30T20:08:50.219Z,10.22
2023-01-30T20:11:18.921Z,9.86
2023-01-30T20:13:46.412Z,10.18
2023-01-30T20:16:16.013Z,9.79
2023-01-30T20:18:43.047Z,9.76
2023-01-30T20:21:15.406Z,10.21
2023-01-30T20:23:44.944Z,9.72
2023-01-30T20:26:14.846Z,9.71
2023-01-30T20:28:41.881Z,9.62
2023-01-30T20:31:21.725Z,9.86
2023-01-30T20:33:48.856Z,9.97
2023-01-30T20:36:21.141Z,9.57
2023-01-30T20:38:49.371Z,9.17
2023-01-30T20:41:18.488Z,9.97
2023-01-30T20:43:47.265Z,10.06
2023-01-30T20:46:16.489Z,9.41
2023-01-30T20:48:43.531Z,9.67
2023-01-30T20:51:12.973Z,9.19
2023-01-30T20:53:40.444Z,9.60
2023-01-30T20:56:08.958Z,9.36
2023-01-30T20:58:37.318Z,9.72
2023-01-30T21:01:12.495Z,9.46
2023-01-30T21:03:39.661Z,9.56
2023-01-30T21:06:06.823Z,9.42
2023-01-30T21:08:34.522Z,9.63
2023-01-30T21:11:10.351Z,9.25
2023-01-30T21:13:38.307Z,9.52
2023-01-30T21:16:11.502Z,9.40
2023-01-30T21:18:42.971Z,9.18
2023-01-30T21:21:19.429Z,9.32
2023-01-30T21:23:47.729Z,9.09
2023-01-30T21:26:15.514Z,9.49
2023-01-30T21:28:42.602Z,9.29
2023-01-30T21:31:15.834Z,9.14
2023-01-30T21:33:43.061Z,9.05
2023-01-30T21:36:10.117Z,9.36
2023-01-30T21:38:55.996Z,9.36
2023-01-30T21:41:45.026Z,9.33
2023-01-30T21:44:14.409Z,8.90
2023-01-30T21:46:43.487Z,8.91
2023-01-30T21:49:10.699Z,9.06
2023-01-30T21:51:37.880Z,8.92
2023-01-30T21:54:04.834Z,8.94
2023-01-30T21:56:32.280Z,8.77
2023-01-30T21:59:00.109Z,9.30
2023-01-30T22:01:28.078Z,8.96
2023-01-30T22:03:55.098Z,8.72
2023-01-30T22:06:21.983Z,8.51
2023-01-30T22:08:48.825Z,8.88
2023-01-30T22:11:19.465Z,8.55
2023-01-30T22:13:48.236Z,8.68
2023-01-30T22:16:23.496Z,8.04
2023-01-30T22:18:55.703Z,8.19
2023-01-30T22:21:24.248Z,8.34
2023-01-30T22:23:53.356Z,7.94
2023-01-30T22:26:22.468Z,8.53
2023-01-30T22:28:54.301Z,8.57
2023-01-30T22:31:21.776Z,8.23
2023-01-30T22:33:51.197Z,8.62
2023-01-30T22:36:19.231Z,8.70
2023-01-30T22:38:48.734Z,8.57
2023-01-30T22:41:19.928Z,8.69
2023-01-30T22:43:57.426Z,8.39
2023-01-30T22:46:35.312Z,8.77
2023-01-30T22:49:03.279Z,8.37
2023-01-30T22:51:35.880Z,8.42
2023-01-30T22:54:05.576Z,8.32
2023-01-30T22:56:37.486Z,8.31
2023-01-30T22:59:05.570Z,8.14
2023-01-30T23:01:37.323Z,8.25
2023-01-30T23:04:12.146Z,7.82
2023-01-30T23:06:40.507Z,7.81
2023-01-30T23:09:09.338Z,8.21
2023-01-30T23:11:39.149Z,7.94
2023-01-30T23:14:12.643Z,7.95
2023-01-30T23:16:41.225Z,7.88
2023-01-30T23:19:09.671Z,8.06
2023-01-30T23:21:42.029Z,8.23
2023-01-30T23:24:14.104Z,8.19
2023-01-30T23:26:43.560Z,8.01
2023-01-30T23:29:13.471Z,8.40
2023-01-30T23:31:41.949Z,8.13
2023-01-30T23:34:13.275Z,7.81
2023-01-30T23:36:40.149Z,7.98
2023-01-30T23:39:06.987Z,7.98
2023-01-30T23:41:35.344Z,7.89
2023-01-30T23:44:02.471Z,8.34
2023-01-30T23:46:31.185Z,8.23
2023-01-30T23:49:00.493Z,8.16
2023-01-30T23:51:29.700Z,8.17
2023-01-30T23:53:57.394Z,8.11
2023-01-30T23:56:26.495Z,7.77
2023-01-30T23:58:53.633Z,7.74
